Nearby METAR Reports

 

EBAW - Antwerp/Deurne, Belgium
Distance from station: ZZO 9km
Ververst: 29/09/2022 05:50
Mist
Mist
 Wind van ZO
Wind: ZO 6 km/h
Temperatuur: 3°C
Dauwpunt: 3°C
Vochtigheid: 100%
Barometer: 1000 hPa
Overzicht: Mist
Visibility: 3 km
2022/09/29 03:50 EBAW 290350Z AUTO 13003KT 2600 BR VV/// 03/03 Q1000
EHWO - Woensdrecht Rnla, Netherlands
Distance from station: NNW 20km
Ververst: 29/09/2022 06:12
Gedeeltelijk bewolkt
Gedeeltelijk bewolkt
 Wind van OZO
Wind: OZO 2 km/h
Temperatuur: 4°C
Dauwpunt: 3°C
Vochtigheid: 93%
Barometer: 999 hPa
Clouds: Gedeeltelijk bewolkt
Visibility: 10 km
Cloud details: Gedeeltelijk bewolkt 7010 m
2022/09/29 04:12 EHWO 290412Z AUTO 11001KT 9999 SCT230 04/03 Q0999 BLU
 
EBBR - Brussels Nationa, Belgium
Distance from station: Z 43km
Ververst: 29/09/2022 05:50
Gedeeltelijk bewolkt
Gedeeltelijk bewolkt
 Wind van ZZW
Wind: ZZW 11 km/h
Temperatuur: 6°C
Gevoelstemp.: 4°C
Dauwpunt: 4°C
Vochtigheid: 87%
Barometer: 1000 hPa
Clouds: Gedeeltelijk bewolkt
Visibility: 10 km
Cloud details: Gedeeltelijk bewolkt 1067 m
2022/09/29 03:50 EBBR 290350Z 20006KT 9999 SCT035 06/04 Q1000 NOSIG
EHGR - Gilze-Rijen Rnla, Netherlands
Distance from station: NO 47km
Ververst: 29/09/2022 06:14
Fog, Helder
Fog, Helder
 Wind van OZO
Wind: OZO 2 km/h
Temperatuur: 4°C
Dauwpunt: 4°C
Vochtigheid: 100%
Barometer: 999 hPa
Overzicht: Fog
Clouds: Helder
Visibility: 1 km
2022/09/29 04:14 EHGR 290414Z AUTO 12001KT 0900 FG NCD 04/04 Q0999 AMB RMK CB INFO NOT AVBL
 
EBDT - Schaffen, Belgium
Distance from station: OZO 54km
Ververst: 29/09/2022 04:55
NOT Current

 Wind van ZZO
Wind: ZZO 6 km/h
2022/09/29 02:55 EBDT 290255Z AUTO 16003KT //// /// ///// Q////
EHFS - Vlissingen, Netherlands
Distance from station: WNW 60km
Ververst: 29/09/2022 05:55
Gedeeltelijk bewolkt
Gedeeltelijk bewolkt
 Wind van ZZW
Wind: ZZW 9 km/h
Temperatuur: 11°C
Dauwpunt: 9°C
Vochtigheid: 88%
Barometer: 999 hPa
Clouds: Gedeeltelijk bewolkt
Visibility: 10 km
2022/09/29 03:55 EHFS 290355Z AUTO 20005KT 9999 NSC 11/09 Q0999
 
EBBE - Beauvechain (baf, Belgium
Distance from station: ZZO 64km
Ververst: 29/09/2022 05:25
Helder
Helder
 Wind van varies
Wind: varies 4 km/h
Temperatuur: 7°C
Dauwpunt: 5°C
Vochtigheid: 87%
Barometer: 999 hPa
Clouds: Helder
Visibility: 10 km
2022/09/29 03:25 EBBE 290325Z AUTO VRB02KT 9999 NCD 07/05 Q0999 BLU
EHEH - Eindhoven Rnlafb, Netherlands
Distance from station: ONO 69km
Ververst: 29/09/2022 06:12
Mist, Helder
Mist, Helder
 Wind van varies
Wind: varies 4 km/h
Temperatuur: 4°C
Dauwpunt: 4°C
Vochtigheid: 100%
Barometer: 1000 hPa
Overzicht: Mist
Clouds: Helder
Visibility: 3 km
2022/09/29 04:12 EHEH 290412Z AUTO VRB02KT 2800 BR NCD 04/04 Q1000 YLO
 
EBBL - Kleine-Brogel(Ba, Belgium
Distance from station: O 74km
Ververst: 29/09/2022 06:12
Helder
Helder
 Wind van varies
Wind: varies 4 km/h
Temperatuur: 5°C
Dauwpunt: 4°C
Vochtigheid: 93%
Barometer: 1000 hPa
Clouds: Helder
Visibility: 7 km
2022/09/29 04:12 EBBL 290412Z AUTO VRB02KT 7000 NCD 05/04 Q1000 WHT
EHRD - Rotterdam Airpor, Netherlands
Distance from station: N 75km
Ververst: 29/09/2022 05:55
Mist, Gedeeltelijk bewolkt
Mist, Gedeeltelijk bewolkt
 Wind van ZO
Wind: ZO 6 km/h
Temperatuur: 7°C
Dauwpunt: 6°C
Vochtigheid: 93%
Barometer: 999 hPa
Overzicht: Mist
Clouds: Gedeeltelijk bewolkt
Visibility: 2 km
2022/09/29 03:55 EHRD 290355Z AUTO 14003KT 2400 BR NSC 07/06 Q0999 BECMG 1200
 
EHSC - Goeree Le Sea, Netherlands
Distance from station: NW 89km
Ververst: 29/09/2022 05:55

 Wind van varies
Wind: varies 2 km/h
Temperatuur: 13°C
Dauwpunt: 8°C
Vochtigheid: 72%
Barometer: 999 hPa
Visibility: 10 km
2022/09/29 03:55 EHSC 290355Z AUTO VRB01KT 9999 ///////// 13/08 Q0999 W18/H7
EBCI - Charleroi/Gossel, Belgium
Distance from station: Z 90km
Ververst: 29/09/2022 05:50
Helder
Helder
 Wind van Z
Wind: Z 6 km/h
Temperatuur: 5°C
Dauwpunt: 4°C
Vochtigheid: 93%
Barometer: 1000 hPa
Overzicht: Helder
Visibility: greater than 10 km
2022/09/29 03:50 EBCI 290350Z 19003KT CAVOK 05/04 Q1000 NOSIG
 
EBCV - Chievres Ab, Belgium
Distance from station: ZZW 90km
Ververst: 29/09/2022 05:25
Meestal bewolkt
Meestal bewolkt
 Wind van Z
Wind: Z 6 km/h
Temperatuur: 6°C
Dauwpunt: 6°C
Vochtigheid: 100%
Barometer: 1000 hPa
Clouds: Meestal bewolkt
Visibility: 10 km
Cloud details: Meestal bewolkt 1463 m
2022/09/29 03:25 EBCV 290325Z AUTO 18003KT 9999 BKN048/// 06/06 Q1000 BLU
EHVK - Volkel Rnlafb, Netherlands
Distance from station: ONO 97km
Ververst: 29/09/2022 06:08
Mist, Helder
Mist, Helder
 Wind van varies
Wind: varies 4 km/h
Temperatuur: 4°C
Dauwpunt: 4°C
Vochtigheid: 100%
Barometer: 999 hPa
Overzicht: Mist
Clouds: Helder
Visibility: 2 km
2022/09/29 04:08 EHVK 290408Z AUTO VRB02KT 1600 BR NCD 04/04 Q0999 YLO
 
EBLG - Bierset/Liege (c, Belgium
Distance from station: ZO 102km
Ververst: 29/09/2022 05:50
Helder
Helder
 Wind van ZZO
Wind: ZZO 13 km/h
Temperatuur: 5°C
Gevoelstemp.: 2°C
Dauwpunt: 4°C
Vochtigheid: 93%
Barometer: 1000 hPa
Overzicht: Helder
Visibility: greater than 10 km
2022/09/29 03:50 EBLG 290350Z 15007KT 120V180 CAVOK 05/04 Q1000 NOSIG
EHBK - Zuid-Limburg/Bee, Netherlands
Distance from station: OZO 102km
Ververst: 29/09/2022 05:55
Helder
Helder
 Wind van ZZW
Wind: ZZW 7 km/h
Temperatuur: 5°C
Gevoelstemp.: 3°C
Dauwpunt: 4°C
Vochtigheid: 93%
Barometer: 1000 hPa
Clouds: Helder
Visibility: 10 km
2022/09/29 03:55 EHBK 290355Z AUTO 20004KT 9999 NCD 05/04 Q1000 NOSIG
 
EBOS - Oostende Airport, Belgium
Distance from station: W 108km
Ververst: 29/09/2022 05:50
Lichte regen, Showers, Meestal bewolkt
Lichte regen, Showers, Meestal bewolkt
 Wind van W
Wind: W 7 km/h
Temperatuur: 9°C
Gevoelstemp.: 8°C
Dauwpunt: 7°C
Vochtigheid: 87%
Barometer: 1000 hPa
Overzicht: Lichte regen, Showers
Clouds: Meestal bewolkt
Visibility: 9 km
Cloud details: Few Clouds 975 m
Meestal bewolkt 1463 m
2022/09/29 03:50 EBOS 290350Z 27004KT 9000 -SHRA FEW032TCU BKN048 09/07 Q1000 TEMPO 4000 SHRA
EHSA - Euro Platform, Netherlands
Distance from station: NW 112km
Ververst: 29/09/2022 05:55

 Wind van NW
Wind: NW 17 km/h
Temperatuur: 13°C
Dauwpunt: 7°C
Vochtigheid: 67%
Barometer: 999 hPa
Visibility: 10 km
2022/09/29 03:55 EHSA 290355Z AUTO 32009KT 9999 ///////// 13/07 Q0999 W18/H9
 
EHAM - Amsterdam/Schiph, Netherlands
Distance from station: NNO 118km
Ververst: 29/09/2022 05:55
Patches of fog, Gedeeltelijk bewolkt
Patches of fog, Gedeeltelijk bewolkt
 Wind van OZO
Wind: OZO 7 km/h
Temperatuur: 6°C
Gevoelstemp.: 4°C
Dauwpunt: 5°C
Vochtigheid: 93%
Barometer: 999 hPa
Overzicht: Patches of Fog
Clouds: Gedeeltelijk bewolkt
Visibility: 1 km
Cloud details: Gedeeltelijk bewolkt 30 m
2022/09/29 03:55 EHAM 290355Z 11004KT 1000 R18C/P2000N R27/1800N R18R/1300D R06/P2000N BCFG SCT001 06/05 Q0999 BECMG 0600 FG
ETNG - Geilenkirchen(Na, Germany
Distance from station: OZO 118km
Ververst: 29/09/2022 05:50
Mist, Few clouds
Mist, Few clouds
 Wind van ZZO
Wind: ZZO 2 km/h
Temperatuur: 4°C
Dauwpunt: 4°C
Vochtigheid: 100%
Barometer: 1000 hPa
Overzicht: Mist
Clouds: Few Clouds
Visibility: 3 km
Cloud details: Few Clouds 7620 m
2022/09/29 03:50 ETNG 290350Z 15001KT 2500 BR FEW250 04/04 Q1000